sensor_id;sensor_type;location;lat;lon;timestamp;pressure;altitude;pressure_sealevel;temperature;humidity
16255;BME280;8235;52.198;9.904;2023-04-28T00:01:35;100946.16;;;7.27;58.42
16255;BME280;8235;52.198;9.904;2023-04-28T00:04:01;100936.69;;;7.22;58.57
16255;BME280;8235;52.198;9.904;2023-04-28T00:06:28;100943.13;;;7.16;59.27
16255;BME280;8235;52.198;9.904;2023-04-28T00:08:55;100936.13;;;7.15;59.49
16255;BME280;8235;52.198;9.904;2023-04-28T00:11:21;100941.41;;;7.15;59.12
16255;BME280;8235;52.198;9.904;2023-04-28T00:13:49;100934.41;;;7.14;59.11
16255;BME280;8235;52.198;9.904;2023-04-28T00:16:16;100928.25;;;7.14;59.52
16255;BME280;8235;52.198;9.904;2023-04-28T00:18:42;100930.88;;;7.14;59.73
16255;BME280;8235;52.198;9.904;2023-04-28T00:21:08;100934.41;;;7.14;59.28
16255;BME280;8235;52.198;9.904;2023-04-28T00:23:35;100930.81;;;7.15;59.67
16255;BME280;8235;52.198;9.904;2023-04-28T00:26:01;100918.50;;;7.14;59.70
16255;BME280;8235;52.198;9.904;2023-04-28T00:28:28;100917.66;;;7.14;59.98
16255;BME280;8235;52.198;9.904;2023-04-28T00:30:55;100909.69;;;7.14;59.78
16255;BME280;8235;52.198;9.904;2023-04-28T00:33:22;100908.78;;;7.15;59.88
16255;BME280;8235;52.198;9.904;2023-04-28T00:35:48;100903.53;;;7.13;59.79
16255;BME280;8235;52.198;9.904;2023-04-28T00:38:15;100901.75;;;7.14;60.28
16255;BME280;8235;52.198;9.904;2023-04-28T00:40:41;100908.78;;;7.15;60.16
16255;BME280;8235;52.198;9.904;2023-04-28T00:43:08;100906.13;;;7.15;60.28
16255;BME280;8235;52.198;9.904;2023-04-28T00:45:34;100900.81;;;7.15;60.71
16255;BME280;8235;52.198;9.904;2023-04-28T00:48:02;100903.41;;;7.16;60.45
16255;BME280;8235;52.198;9.904;2023-04-28T00:50:29;100903.31;;;7.18;60.73
16255;BME280;8235;52.198;9.904;2023-04-28T00:52:55;100901.53;;;7.18;60.72
16255;BME280;8235;52.198;9.904;2023-04-28T00:55:23;100904.97;;;7.20;60.64
16255;BME280;8235;52.198;9.904;2023-04-28T00:57:51;100892.50;;;7.22;61.20
16255;BME280;8235;52.198;9.904;2023-04-28T01:00:20;100896.03;;;7.23;61.08
16255;BME280;8235;52.198;9.904;2023-04-28T01:02:48;100887.16;;;7.24;61.57
16255;BME280;8235;52.198;9.904;2023-04-28T01:05:17;100889.78;;;7.24;60.83
16255;BME280;8235;52.198;9.904;2023-04-28T01:07:43;100894.16;;;7.25;60.91
16255;BME280;8235;52.198;9.904;2023-04-28T01:10:10;100885.34;;;7.24;61.27
16255;BME280;8235;52.198;9.904;2023-04-28T01:12:36;100885.34;;;7.24;61.27
16255;BME280;8235;52.198;9.904;2023-04-28T01:15:03;100879.13;;;7.25;61.09
16255;BME280;8235;52.198;9.904;2023-04-28T01:17:30;100878.28;;;7.25;61.53
16255;BME280;8235;52.198;9.904;2023-04-28T01:19:56;100872.03;;;7.26;60.88
16255;BME280;8235;52.198;9.904;2023-04-28T01:22:24;100872.91;;;7.26;61.58
16255;BME280;8235;52.198;9.904;2023-04-28T01:24:52;100875.50;;;7.28;61.16
16255;BME280;8235;52.198;9.904;2023-04-28T01:27:18;100872.84;;;7.28;60.92
16255;BME280;8235;52.198;9.904;2023-04-28T01:29:45;100877.22;;;7.29;60.69
16255;BME280;8235;52.198;9.904;2023-04-28T01:32:11;100879.84;;;7.29;60.75
16255;BME280;8235;52.198;9.904;2023-04-28T01:34:38;100870.19;;;7.28;60.77
16255;BME280;8235;52.198;9.904;2023-04-28T01:37:04;100867.53;;;7.28;60.82
16255;BME280;8235;52.198;9.904;2023-04-28T01:39:31;100867.59;;;7.26;60.96
16255;BME280;8235;52.198;9.904;2023-04-28T01:41:58;100859.66;;;7.26;61.43
16255;BME280;8235;52.198;9.904;2023-04-28T01:44:26;100854.28;;;7.28;61.41
16255;BME280;8235;52.198;9.904;2023-04-28T01:46:54;100852.50;;;7.28;61.51
16255;BME280;8235;52.198;9.904;2023-04-28T01:49:20;100857.88;;;7.27;61.65
16255;BME280;8235;52.198;9.904;2023-04-28T01:51:48;100851.00;;;7.23;61.67
16255;BME280;8235;52.198;9.904;2023-04-28T01:54:14;100850.19;;;7.21;62.32
16255;BME280;8235;52.198;9.904;2023-04-28T01:56:41;100841.53;;;7.17;61.83
16255;BME280;8235;52.198;9.904;2023-04-28T01:59:11;100839.91;;;7.15;62.91
16255;BME280;8235;52.198;9.904;2023-04-28T02:01:37;100838.25;;;7.12;62.31
16255;BME280;8235;52.198;9.904;2023-04-28T02:04:04;100827.78;;;7.09;62.87
16255;BME280;8235;52.198;9.904;2023-04-28T02:06:30;100826.88;;;7.10;63.47
16255;BME280;8235;52.198;9.904;2023-04-28T02:08:57;100828.59;;;7.11;63.63
16255;BME280;8235;52.198;9.904;2023-04-28T02:11:23;100821.56;;;7.10;63.53
16255;BME280;8235;52.198;9.904;2023-04-28T02:13:50;100819.00;;;7.09;63.52
16255;BME280;8235;52.198;9.904;2023-04-28T02:16:17;100815.56;;;7.07;63.83
16255;BME280;8235;52.198;9.904;2023-04-28T02:18:44;100820.06;;;7.05;63.88
16255;BME280;8235;52.198;9.904;2023-04-28T02:21:11;100817.53;;;7.02;63.91
16255;BME280;8235;52.198;9.904;2023-04-28T02:23:38;100818.53;;;6.99;64.16
16255;BME280;8235;52.198;9.904;2023-04-28T02:26:04;100820.34;;;6.99;64.59
16255;BME280;8235;52.198;9.904;2023-04-28T02:28:31;100812.47;;;6.97;65.16
16255;BME280;8235;52.198;9.904;2023-04-28T02:31:05;100807.19;;;6.97;65.31
16255;BME280;8235;52.198;9.904;2023-04-28T02:33:33;100807.25;;;6.95;64.84
16255;BME280;8235;52.198;9.904;2023-04-28T02:36:00;100802.09;;;6.92;64.46
16255;BME280;8235;52.198;9.904;2023-04-28T02:38:26;100792.50;;;6.90;64.39
16255;BME280;8235;52.198;9.904;2023-04-28T02:40:56;100786.34;;;6.89;64.27
16255;BME280;8235;52.198;9.904;2023-04-28T02:43:24;100774.97;;;6.87;64.55
16255;BME280;8235;52.198;9.904;2023-04-28T02:45:50;100781.19;;;6.86;64.35
16255;BME280;8235;52.198;9.904;2023-04-28T02:48:16;100774.16;;;6.85;64.38
16255;BME280;8235;52.198;9.904;2023-04-28T02:50:44;100775.09;;;6.84;64.54
16255;BME280;8235;52.198;9.904;2023-04-28T02:53:11;100777.75;;;6.84;64.71
16255;BME280;8235;52.198;9.904;2023-04-28T02:55:38;100778.66;;;6.83;64.08
16255;BME280;8235;52.198;9.904;2023-04-28T02:58:04;100778.66;;;6.83;64.33
16255;BME280;8235;52.198;9.904;2023-04-28T03:00:31;100775.16;;;6.83;64.33
16255;BME280;8235;52.198;9.904;2023-04-28T03:02:57;100766.38;;;6.82;64.05
16255;BME280;8235;52.198;9.904;2023-04-28T03:05:23;100771.66;;;6.82;64.10
16255;BME280;8235;52.198;9.904;2023-04-28T03:07:51;100762.00;;;6.81;63.87
16255;BME280;8235;52.198;9.904;2023-04-28T03:10:18;100760.31;;;6.80;64.13
16255;BME280;8235;52.198;9.904;2023-04-28T03:12:44;100756.88;;;6.78;63.65
16255;BME280;8235;52.198;9.904;2023-04-28T03:15:11;100755.16;;;6.77;63.97
16255;BME280;8235;52.198;9.904;2023-04-28T03:17:37;100748.13;;;6.76;64.15
16255;BME280;8235;52.198;9.904;2023-04-28T03:20:07;100750.84;;;6.75;64.06
16255;BME280;8235;52.198;9.904;2023-04-28T03:22:34;100751.06;;;6.70;63.53
16255;BME280;8235;52.198;9.904;2023-04-28T03:25:02;100747.63;;;6.68;63.74
16255;BME280;8235;52.198;9.904;2023-04-28T03:27:29;100749.53;;;6.65;63.84
16255;BME280;8235;52.198;9.904;2023-04-28T03:29:56;100740.03;;;6.60;63.59
16255;BME280;8235;52.198;9.904;2023-04-28T03:32:22;100734.81;;;6.59;64.11
16255;BME280;8235;52.198;9.904;2023-04-28T03:34:49;100733.22;;;6.55;64.09
16255;BME280;8235;52.198;9.904;2023-04-28T03:37:15;100736.81;;;6.54;64.25
16255;BME280;8235;52.198;9.904;2023-04-28T03:39:42;100739.50;;;6.52;64.43
16255;BME280;8235;52.198;9.904;2023-04-28T03:42:09;100738.78;;;6.49;64.32
16255;BME280;8235;52.198;9.904;2023-04-28T03:44:36;100725.78;;;6.44;64.59
16255;BME280;8235;52.198;9.904;2023-04-28T03:47:02;100719.84;;;6.39;64.57
16255;BME280;8235;52.198;9.904;2023-04-28T03:49:29;100722.69;;;6.35;64.99
16255;BME280;8235;52.198;9.904;2023-04-28T03:51:56;100716.59;;;6.33;65.11
16255;BME280;8235;52.198;9.904;2023-04-28T03:54:22;100727.31;;;6.30;65.15
16255;BME280;8235;52.198;9.904;2023-04-28T03:56:49;100716.91;;;6.26;65.47
16255;BME280;8235;52.198;9.904;2023-04-28T03:59:17;100720.47;;;6.25;65.36
16255;BME280;8235;52.198;9.904;2023-04-28T04:01:43;100721.53;;;6.21;65.79
16255;BME280;8235;52.198;9.904;2023-04-28T04:04:10;100717.16;;;6.20;65.78
16255;BME280;8235;52.198;9.904;2023-04-28T04:06:37;100715.44;;;6.19;66.20
16255;BME280;8235;52.198;9.904;2023-04-28T04:09:03;100705.00;;;6.16;65.95
16255;BME280;8235;52.198;9.904;2023-04-28T04:11:30;100711.13;;;6.17;66.06
16255;BME280;8235;52.198;9.904;2023-04-28T04:13:56;100712.13;;;6.14;66.02
16255;BME280;8235;52.198;9.904;2023-04-28T04:16:24;100698.09;;;6.12;66.04
16255;BME280;8235;52.198;9.904;2023-04-28T04:18:50;100697.31;;;6.10;66.01
16255;BME280;8235;52.198;9.904;2023-04-28T04:21:17;100694.84;;;6.07;66.16
16255;BME280;8235;52.198;9.904;2023-04-28T04:23:43;100698.41;;;6.06;66.69
16255;BME280;8235;52.198;9.904;2023-04-28T04:26:10;100696.75;;;6.04;66.46
16255;BME280;8235;52.198;9.904;2023-04-28T04:28:36;100695.03;;;6.03;66.63
16255;BME280;8235;52.198;9.904;2023-04-28T04:31:03;100699.47;;;6.02;66.75
16255;BME280;8235;52.198;9.904;2023-04-28T04:33:31;100699.38;;;6.04;66.56
16255;BME280;8235;52.198;9.904;2023-04-28T04:35:58;100692.25;;;6.06;66.76
16255;BME280;8235;52.198;9.904;2023-04-28T04:38:25;100694.97;;;6.04;66.76
16255;BME280;8235;52.198;9.904;2023-04-28T04:40:51;100683.47;;;6.05;66.82
16255;BME280;8235;52.198;9.904;2023-04-28T04:43:18;100688.75;;;6.05;66.82
16255;BME280;8235;52.198;9.904;2023-04-28T04:45:45;100684.31;;;6.06;67.01
16255;BME280;8235;52.198;9.904;2023-04-28T04:48:11;100691.41;;;6.05;66.98
16255;BME280;8235;52.198;9.904;2023-04-28T04:50:39;100693.91;;;6.08;67.02
16255;BME280;8235;52.198;9.904;2023-04-28T04:53:06;100698.25;;;6.09;67.26
16255;BME280;8235;52.198;9.904;2023-04-28T04:55:33;100693.81;;;6.10;67.22
16255;BME280;8235;52.198;9.904;2023-04-28T04:57:59;100697.25;;;6.12;67.54
16255;BME280;8235;52.198;9.904;2023-04-28T05:00:26;100694.53;;;6.13;67.39
16255;BME280;8235;52.198;9.904;2023-04-28T05:02:53;100690.97;;;6.14;67.40
16255;BME280;8235;52.198;9.904;2023-04-28T05:05:20;100688.13;;;6.19;67.43
16255;BME280;8235;52.198;9.904;2023-04-28T05:07:47;100674.06;;;6.18;67.39
16255;BME280;8235;52.198;9.904;2023-04-28T05:10:14;100674.84;;;6.20;67.34
16255;BME280;8235;52.198;9.904;2023-04-28T05:12:40;100685.28;;;6.23;67.59
16255;BME280;8235;52.198;9.904;2023-04-28T05:15:09;100676.44;;;6.24;67.64
16255;BME280;8235;52.198;9.904;2023-04-28T05:17:35;100668.44;;;6.26;68.01
16255;BME280;8235;52.198;9.904;2023-04-28T05:20:02;100665.69;;;6.27;67.85
16255;BME280;8235;52.198;9.904;2023-04-28T05:22:29;100664.75;;;6.28;67.77
16255;BME280;8235;52.198;9.904;2023-04-28T05:24:57;100660.25;;;6.31;68.42
16255;BME280;8235;52.198;9.904;2023-04-28T05:27:23;100669.00;;;6.33;68.78
16255;BME280;8235;52.198;9.904;2023-04-28T05:29:50;100672.44;;;6.35;68.75
16255;BME280;8235;52.198;9.904;2023-04-28T05:32:16;100659.94;;;6.38;69.49
16255;BME280;8235;52.198;9.904;2023-04-28T05:34:43;100661.50;;;6.42;69.72
16255;BME280;8235;52.198;9.904;2023-04-28T05:37:09;100663.84;;;6.48;70.00
16255;BME280;8235;52.198;9.904;2023-04-28T05:39:36;100664.50;;;6.53;70.38
16255;BME280;8235;52.198;9.904;2023-04-28T05:42:04;100662.50;;;6.58;70.72
16255;BME280;8235;52.198;9.904;2023-04-28T05:44:30;100663.13;;;6.63;70.63
16255;BME280;8235;52.198;9.904;2023-04-28T05:46:57;100655.91;;;6.67;70.72
16255;BME280;8235;52.198;9.904;2023-04-28T05:49:23;100652.19;;;6.71;70.98
16255;BME280;8235;52.198;9.904;2023-04-28T05:51:50;100651.06;;;6.77;70.56
16255;BME280;8235;52.198;9.904;2023-04-28T05:54:17;100652.59;;;6.81;70.54
16255;BME280;8235;52.198;9.904;2023-04-28T05:56:43;100651.53;;;6.85;70.32
16255;BME280;8235;52.198;9.904;2023-04-28T05:59:11;100645.25;;;6.87;70.33
16255;BME280;8235;52.198;9.904;2023-04-28T06:01:38;100635.28;;;6.92;69.96
16255;BME280;8235;52.198;9.904;2023-04-28T06:04:04;100632.50;;;6.95;69.76
16255;BME280;8235;52.198;9.904;2023-04-28T06:06:31;100629.59;;;7.00;69.42
16255;BME280;8235;52.198;9.904;2023-04-28T06:08:58;100633.75;;;7.06;69.15
16255;BME280;8235;52.198;9.904;2023-04-28T06:11:24;100626.44;;;7.11;69.16
16255;BME280;8235;52.198;9.904;2023-04-28T06:13:51;100621.69;;;7.17;68.90
16255;BME280;8235;52.198;9.904;2023-04-28T06:16:19;100618.81;;;7.22;68.63
16255;BME280;8235;52.198;9.904;2023-04-28T06:18:47;100634.41;;;7.28;68.70
16255;BME280;8235;52.198;9.904;2023-04-28T06:21:15;100624.44;;;7.33;68.58
16255;BME280;8235;52.198;9.904;2023-04-28T06:23:41;100626.78;;;7.39;68.82
16255;BME280;8235;52.198;9.904;2023-04-28T06:26:08;100624.75;;;7.44;68.53
16255;BME280;8235;52.198;9.904;2023-04-28T06:28:34;100624.47;;;7.50;68.85
16255;BME280;8235;52.198;9.904;2023-04-28T06:31:01;100624.13;;;7.56;68.91
16255;BME280;8235;52.198;9.904;2023-04-28T06:33:29;100606.91;;;7.65;68.44
16255;BME280;8235;52.198;9.904;2023-04-28T06:35:55;100619.75;;;7.73;68.87
16255;BME280;8235;52.198;9.904;2023-04-28T06:38:22;100612.34;;;7.79;68.44
16255;BME280;8235;52.198;9.904;2023-04-28T06:40:48;100622.63;;;7.85;67.73
16255;BME280;8235;52.198;9.904;2023-04-28T06:43:15;100624.00;;;7.92;68.25
16255;BME280;8235;52.198;9.904;2023-04-28T06:45:42;100635.00;;;8.02;68.51
16255;BME280;8235;52.198;9.904;2023-04-28T06:48:08;100638.00;;;8.12;67.97
16255;BME280;8235;52.198;9.904;2023-04-28T06:50:37;100644.63;;;8.20;68.27
16255;BME280;8235;52.198;9.904;2023-04-28T06:53:03;100639.91;;;8.25;66.81
16255;BME280;8235;52.198;9.904;2023-04-28T06:55:30;100633.38;;;8.32;66.54
16255;BME280;8235;52.198;9.904;2023-04-28T06:57:56;100633.13;;;8.37;66.07
16255;BME280;8235;52.198;9.904;2023-04-28T07:00:23;100627.59;;;8.42;65.55
16255;BME280;8235;52.198;9.904;2023-04-28T07:02:50;100620.13;;;8.48;65.13
16255;BME280;8235;52.198;9.904;2023-04-28T07:05:16;100623.16;;;8.58;65.03
16255;BME280;8235;52.198;9.904;2023-04-28T07:07:44;100616.38;;;8.68;65.39
16255;BME280;8235;52.198;9.904;2023-04-28T07:10:11;100609.59;;;8.78;64.92
16255;BME280;8235;52.198;9.904;2023-04-28T07:12:37;100600.25;;;8.87;64.64
16255;BME280;8235;52.198;9.904;2023-04-28T07:15:05;100605.03;;;8.96;64.85
16255;BME280;8235;52.198;9.904;2023-04-28T07:17:31;100600.06;;;9.05;64.48
16255;BME280;8235;52.198;9.904;2023-04-28T07:19:58;100591.44;;;9.16;64.24
16255;BME280;8235;52.198;9.904;2023-04-28T07:22:24;100598.91;;;9.25;63.42
16255;BME280;8235;52.198;9.904;2023-04-28T07:24:52;100595.78;;;9.33;63.36
16255;BME280;8235;52.198;9.904;2023-04-28T07:27:19;100594.38;;;9.42;62.13
16255;BME280;8235;52.198;9.904;2023-04-28T07:29:45;100592.31;;;9.47;61.77
16255;BME280;8235;52.198;9.904;2023-04-28T07:32:12;100593.56;;;9.55;61.97
16255;BME280;8235;52.198;9.904;2023-04-28T07:34:38;100591.22;;;9.65;62.29
16255;BME280;8235;52.198;9.904;2023-04-28T07:37:05;100587.03;;;9.75;61.66
16255;BME280;8235;52.198;9.904;2023-04-28T07:39:32;100588.28;;;9.84;61.10
16255;BME280;8235;52.198;9.904;2023-04-28T07:42:01;100595.88;;;9.90;61.22
16255;BME280;8235;52.198;9.904;2023-04-28T07:44:28;100590.94;;;9.98;61.24
16255;BME280;8235;52.198;9.904;2023-04-28T07:46:54;100589.59;;;10.05;60.85
16255;BME280;8235;52.198;9.904;2023-04-28T07:49:21;100577.81;;;10.09;60.51
16255;BME280;8235;52.198;9.904;2023-04-28T07:51:47;100573.00;;;10.16;60.40
16255;BME280;8235;52.198;9.904;2023-04-28T07:54:16;100573.19;;;10.27;61.13
16255;BME280;8235;52.198;9.904;2023-04-28T07:56:42;100572.53;;;10.37;61.39
16255;BME280;8235;52.198;9.904;2023-04-28T07:59:10;100568.41;;;10.46;60.54
16255;BME280;8235;52.198;9.904;2023-04-28T08:01:37;100564.59;;;10.50;59.11
16255;BME280;8235;52.198;9.904;2023-04-28T08:04:03;100557.28;;;10.54;58.86
16255;BME280;8235;52.198;9.904;2023-04-28T08:06:30;100562.09;;;10.61;59.43
16255;BME280;8235;52.198;9.904;2023-04-28T08:08:57;100554.38;;;10.71;59.11
16255;BME280;8235;52.198;9.904;2023-04-28T08:11:24;100550.88;;;10.83;59.50
16255;BME280;8235;52.198;9.904;2023-04-28T08:13:50;100556.25;;;10.96;59.18
16255;BME280;8235;52.198;9.904;2023-04-28T08:16:18;100550.13;;;11.08;59.13
16255;BME280;8235;52.198;9.904;2023-04-28T08:18:46;100560.06;;;11.19;58.59
16255;BME280;8235;52.198;9.904;2023-04-28T08:21:13;100555.94;;;11.27;58.88
16255;BME280;8235;52.198;9.904;2023-04-28T08:23:39;100556.03;;;11.38;58.19
16255;BME280;8235;52.198;9.904;2023-04-28T08:26:06;100554.69;;;11.45;57.95
16255;BME280;8235;52.198;9.904;2023-04-28T08:28:32;100556.59;;;11.56;57.43
16255;BME280;8235;52.198;9.904;2023-04-28T08:30:59;100558.19;;;11.59;56.95
16255;BME280;8235;52.198;9.904;2023-04-28T08:33:27;100564.19;;;11.62;56.52
16255;BME280;8235;52.198;9.904;2023-04-28T08:35:54;100560.31;;;11.66;56.50
16255;BME280;8235;52.198;9.904;2023-04-28T08:38:21;100558.84;;;11.75;56.37
16255;BME280;8235;52.198;9.904;2023-04-28T08:40:49;100555.66;;;11.82;56.52
16255;BME280;8235;52.198;9.904;2023-04-28T08:43:16;100547.13;;;11.90;55.99
16255;BME280;8235;52.198;9.904;2023-04-28T08:45:45;100545.84;;;11.96;55.63
16255;BME280;8235;52.198;9.904;2023-04-28T08:48:17;100547.94;;;12.03;55.39
16255;BME280;8235;52.198;9.904;2023-04-28T08:50:48;100543.91;;;12.10;55.06
16255;BME280;8235;52.198;9.904;2023-04-28T08:53:21;100543.38;;;12.18;55.62
16255;BME280;8235;52.198;9.904;2023-04-28T08:55:51;100547.28;;;12.25;55.63
16255;BME280;8235;52.198;9.904;2023-04-28T08:58:20;100539.69;;;12.32;55.52
16255;BME280;8235;52.198;9.904;2023-04-28T09:00:47;100532.31;;;12.35;55.02
16255;BME280;8235;52.198;9.904;2023-04-28T09:03:14;100526.50;;;12.41;55.58
16255;BME280;8235;52.198;9.904;2023-04-28T09:05:40;100521.38;;;12.51;55.54
16255;BME280;8235;52.198;9.904;2023-04-28T09:08:08;100516.41;;;12.58;55.23
16255;BME280;8235;52.198;9.904;2023-04-28T09:10:36;100526.66;;;12.64;55.35
16255;BME280;8235;52.198;9.904;2023-04-28T09:13:03;100516.72;;;12.66;54.98
16255;BME280;8235;52.198;9.904;2023-04-28T09:15:31;100512.97;;;12.68;55.20
16255;BME280;8235;52.198;9.904;2023-04-28T09:17:59;100516.75;;;12.77;55.56
16255;BME280;8235;52.198;9.904;2023-04-28T09:20:27;100512.66;;;12.84;55.77
16255;BME280;8235;52.198;9.904;2023-04-28T09:22:55;100514.25;;;12.86;55.09
16255;BME280;8235;52.198;9.904;2023-04-28T09:25:23;100502.34;;;12.91;55.35
16255;BME280;8235;52.198;9.904;2023-04-28T09:27:52;100496.88;;;12.92;54.68
16255;BME280;8235;52.198;9.904;2023-04-28T09:30:37;100497.63;;;12.94;54.89
16255;BME280;8235;52.198;9.904;2023-04-28T09:33:04;100489.50;;;12.96;55.09
16255;BME280;8235;52.198;9.904;2023-04-28T09:35:39;100483.81;;;13.00;55.58
16255;BME280;8235;52.198;9.904;2023-04-28T09:38:06;100487.00;;;13.05;55.05
16255;BME280;8235;52.198;9.904;2023-04-28T09:40:48;100491.97;;;13.10;55.29
16255;BME280;8235;52.198;9.904;2023-04-28T09:43:22;100488.94;;;13.14;55.13
16255;BME280;8235;52.198;9.904;2023-04-28T09:45:49;100487.66;;;13.20;55.51
16255;BME280;8235;52.198;9.904;2023-04-28T09:48:16;100483.41;;;13.29;55.53
16255;BME280;8235;52.198;9.904;2023-04-28T09:50:43;100474.31;;;13.31;55.41
16255;BME280;8235;52.198;9.904;2023-04-28T09:53:10;100477.50;;;13.36;55.54
16255;BME280;8235;52.198;9.904;2023-04-28T09:55:43;100478.97;;;13.40;54.57
16255;BME280;8235;52.198;9.904;2023-04-28T09:58:12;100473.22;;;13.45;55.02
16255;BME280;8235;52.198;9.904;2023-04-28T10:00:39;100471.78;;;13.52;55.39
16255;BME280;8235;52.198;9.904;2023-04-28T10:03:08;100472.19;;;13.59;55.11
16255;BME280;8235;52.198;9.904;2023-04-28T10:05:35;100463.88;;;13.62;54.59
16255;BME280;8235;52.198;9.904;2023-04-28T10:08:03;100473.50;;;13.64;53.92
16255;BME280;8235;52.198;9.904;2023-04-28T10:10:30;100478.50;;;13.69;53.99
16255;BME280;8235;52.198;9.904;2023-04-28T10:12:58;100474.59;;;13.73;54.05
16255;BME280;8235;52.198;9.904;2023-04-28T10:15:27;100479.59;;;13.77;53.87
16255;BME280;8235;52.198;9.904;2023-04-28T10:17:54;100480.91;;;13.83;53.61
16255;BME280;8235;52.198;9.904;2023-04-28T10:20:20;100486.16;;;13.84;54.11
16255;BME280;8235;52.198;9.904;2023-04-28T10:22:56;100481.53;;;13.86;53.52
16255;BME280;8235;52.198;9.904;2023-04-28T10:25:26;100484.94;;;13.88;53.93
16255;BME280;8235;52.198;9.904;2023-04-28T10:27:53;100482.38;;;13.87;54.78
16255;BME280;8235;52.198;9.904;2023-04-28T10:30:22;100484.09;;;13.88;54.35
16255;BME280;8235;52.198;9.904;2023-04-28T10:33:21;100479.22;;;13.82;54.44
16255;BME280;8235;52.198;9.904;2023-04-28T10:35:48;100472.44;;;13.78;54.50
16255;BME280;8235;52.198;9.904;2023-04-28T10:38:16;100467.44;;;13.73;54.45
16255;BME280;8235;52.198;9.904;2023-04-28T10:40:43;100468.41;;;13.72;54.75
16255;BME280;8235;52.198;9.904;2023-04-28T10:43:11;100470.22;;;13.72;54.74
16255;BME280;8235;52.198;9.904;2023-04-28T10:46:01;100464.75;;;13.73;55.07
16255;BME280;8235;52.198;9.904;2023-04-28T10:48:57;100465.59;;;13.74;55.56
16255;BME280;8235;52.198;9.904;2023-04-28T10:51:31;100465.50;;;13.75;55.77
16255;BME280;8235;52.198;9.904;2023-04-28T10:54:19;100454.78;;;13.75;56.25
16255;BME280;8235;52.198;9.904;2023-04-28T10:57:17;100456.22;;;13.79;56.56
16255;BME280;8235;52.198;9.904;2023-04-28T10:59:45;100458.19;;;13.77;56.77
16255;BME280;8235;52.198;9.904;2023-04-28T11:02:35;100455.50;;;13.77;56.20
16255;BME280;8235;52.198;9.904;2023-04-28T11:05:13;100454.91;;;13.74;56.50
16255;BME280;8235;52.198;9.904;2023-04-28T11:07:40;100454.53;;;13.78;56.87
16255;BME280;8235;52.198;9.904;2023-04-28T11:13:33;100443.69;;;13.80;58.25
16255;BME280;8235;52.198;9.904;2023-04-28T11:16:03;100447.22;;;13.80;58.62
16255;BME280;8235;52.198;9.904;2023-04-28T11:18:43;100435.28;;;13.84;59.34
16255;BME280;8235;52.198;9.904;2023-04-28T11:21:16;100423.38;;;13.88;60.25
16255;BME280;8235;52.198;9.904;2023-04-28T11:23:43;100427.00;;;13.99;61.79
16255;BME280;8235;52.198;9.904;2023-04-28T11:26:10;100426.25;;;14.08;61.46
16255;BME280;8235;52.198;9.904;2023-04-28T11:28:46;100434.78;;;14.13;60.68
16255;BME280;8235;52.198;9.904;2023-04-28T11:31:13;100437.34;;;14.14;60.28
16255;BME280;8235;52.198;9.904;2023-04-28T11:33:47;100438.66;;;14.20;59.58
16255;BME280;8235;52.198;9.904;2023-04-28T11:36:29;100422.31;;;14.23;58.94
16255;BME280;8235;52.198;9.904;2023-04-28T11:38:57;100420.97;;;14.29;58.52
16255;BME280;8235;52.198;9.904;2023-04-28T11:41:24;100422.28;;;14.34;58.02
16255;BME280;8235;52.198;9.904;2023-04-28T11:43:51;100412.91;;;14.40;57.48
16255;BME280;8235;52.198;9.904;2023-04-28T11:46:19;100418.88;;;14.43;57.45
16255;BME280;8235;52.198;9.904;2023-04-28T11:48:47;100420.47;;;14.46;57.06
16255;BME280;8235;52.198;9.904;2023-04-28T11:51:36;100425.69;;;14.47;57.36
16255;BME280;8235;52.198;9.904;2023-04-28T11:54:04;100419.38;;;14.48;57.22
16255;BME280;8235;52.198;9.904;2023-04-28T11:56:36;100413.59;;;14.53;57.66
16255;BME280;8235;52.198;9.904;2023-04-28T11:59:05;100420.28;;;14.58;57.41
16255;BME280;8235;52.198;9.904;2023-04-28T12:01:34;100419.06;;;14.63;56.92
16255;BME280;8235;52.198;9.904;2023-04-28T12:04:03;100415.28;;;14.65;56.93
16255;BME280;8235;52.198;9.904;2023-04-28T12:06:30;100410.50;;;14.69;56.91
16255;BME280;8235;52.198;9.904;2023-04-28T12:08:56;100406.44;;;14.74;57.66
16255;BME280;8235;52.198;9.904;2023-04-28T12:11:28;100411.91;;;14.84;56.80
16255;BME280;8235;52.198;9.904;2023-04-28T12:14:02;100408.09;;;14.86;56.48
16255;BME280;8235;52.198;9.904;2023-04-28T12:16:37;100403.31;;;14.90;56.44
16255;BME280;8235;52.198;9.904;2023-04-28T12:19:09;100402.94;;;14.94;56.15
16255;BME280;8235;52.198;9.904;2023-04-28T12:21:37;100405.47;;;14.96;56.48
16255;BME280;8235;52.198;9.904;2023-04-28T12:24:15;100408.50;;;15.03;56.79
16255;BME280;8235;52.198;9.904;2023-04-28T12:26:42;100408.50;;;15.03;57.42
16255;BME280;8235;52.198;9.904;2023-04-28T12:29:09;100406.78;;;15.02;57.58
16255;BME280;8235;52.198;9.904;2023-04-28T12:31:48;100414.00;;;15.01;58.04
16255;BME280;8235;52.198;9.904;2023-04-28T12:34:18;100402.53;;;14.99;58.06
16255;BME280;8235;52.198;9.904;2023-04-28T12:36:44;100401.69;;;14.99;58.68
16255;BME280;8235;52.198;9.904;2023-04-28T12:39:14;100407.31;;;14.96;58.77
16255;BME280;8235;52.198;9.904;2023-04-28T12:41:44;100398.53;;;14.93;58.73
16255;BME280;8235;52.198;9.904;2023-04-28T12:44:10;100392.84;;;14.87;58.18
16255;BME280;8235;52.198;9.904;2023-04-28T12:46:37;100400.44;;;14.82;58.60
16255;BME280;8235;52.198;9.904;2023-04-28T12:49:03;100410.44;;;14.80;58.11
16255;BME280;8235;52.198;9.904;2023-04-28T12:51:31;100397.56;;;14.74;58.45
16255;BME280;8235;52.198;9.904;2023-04-28T12:53:59;100409.78;;;14.67;57.99
16255;BME280;8235;52.198;9.904;2023-04-28T12:56:29;100405.91;;;14.59;57.86
16255;BME280;8235;52.198;9.904;2023-04-28T12:58:55;100395.69;;;14.53;58.04
16255;BME280;8235;52.198;9.904;2023-04-28T13:01:22;100388.19;;;14.47;58.58
16255;BME280;8235;52.198;9.904;2023-04-28T13:03:49;100395.75;;;14.42;58.14
16255;BME280;8235;52.198;9.904;2023-04-28T13:06:17;100391.72;;;14.37;58.31
16255;BME280;8235;52.198;9.904;2023-04-28T13:08:46;100390.13;;;14.34;58.66
16255;BME280;8235;52.198;9.904;2023-04-28T13:11:13;100386.75;;;14.32;58.62
16255;BME280;8235;52.198;9.904;2023-04-28T13:13:40;100382.50;;;14.30;59.34
16255;BME280;8235;52.198;9.904;2023-04-28T13:16:09;100378.00;;;14.30;60.30